createdAt,value
2022-11-05T07:19:32.336Z,1.92
2022-11-05T07:21:53.229Z,1.50
2022-11-05T07:24:40.879Z,2.03
2022-11-05T07:27:36.034Z,1.75
2022-11-05T07:30:22.917Z,1.40
2022-11-05T07:33:12.850Z,1.60
2022-11-05T07:36:02.292Z,1.50
2022-11-05T07:38:57.402Z,1.75
2022-11-05T07:42:49.541Z,1.58
2022-11-05T07:45:07.189Z,1.00
2022-11-05T07:47:58.827Z,1.50
2022-11-05T07:50:47.313Z,1.03
2022-11-05T07:53:32.897Z,1.20
2022-11-05T07:56:19.459Z,1.52
2022-11-05T07:59:29.184Z,1.60
2022-11-05T11:50:05.398Z,0.90
2022-11-05T11:55:22.726Z,1.00
2022-11-05T12:05:27.816Z,0.80
2022-11-05T12:09:05.406Z,0.70
2022-11-05T12:11:38.190Z,0.70
2022-11-05T12:14:46.188Z,0.90
2022-11-05T12:18:10.739Z,0.93
2022-11-05T12:21:34.642Z,0.50
2022-11-05T12:26:26.267Z,1.00
2022-11-05T12:28:28.639Z,0.80
2022-11-05T12:32:44.570Z,0.88
2022-11-05T12:36:02.481Z,0.50
2022-11-05T12:39:47.987Z,0.95
2022-11-05T12:43:00.518Z,1.10
2022-11-05T12:46:03.562Z,0.60
2022-11-05T12:49:03.858Z,0.50
2022-11-05T12:52:18.294Z,0.43
2022-11-05T12:55:11.077Z,0.65
2022-11-05T12:58:04.580Z,0.70
2022-11-05T13:00:57.883Z,0.60
2022-11-05T13:03:54.287Z,0.60
2022-11-05T13:07:17.250Z,0.52
2022-11-05T13:10:27.504Z,0.40
2022-11-05T13:14:30.212Z,0.63
2022-11-05T13:16:55.901Z,0.60
2022-11-05T13:19:51.450Z,0.55
2022-11-05T13:23:30.086Z,0.90
2022-11-05T13:30:38.244Z,0.70
2022-11-05T13:37:54.138Z,0.80
2022-11-05T13:41:29.679Z,0.90
2022-11-05T13:45:00.326Z,0.75
2022-11-05T13:47:59.763Z,0.70
2022-11-05T13:50:59.525Z,0.80
2022-11-05T13:54:01.707Z,0.50
2022-11-05T13:56:51.065Z,0.90
2022-11-05T13:59:54.422Z,1.03
2022-11-05T14:02:49.054Z,0.90
2022-11-05T14:05:40.181Z,0.90
2022-11-05T14:08:33.483Z,0.70
2022-11-05T14:11:34.662Z,1.10
2022-11-05T14:14:28.280Z,0.80
2022-11-05T14:17:29.845Z,0.93
2022-11-05T14:20:26.934Z,0.60
2022-11-05T14:23:24.460Z,0.55
2022-11-05T14:26:34.316Z,0.80
2022-11-05T14:29:24.481Z,0.70
2022-11-05T14:32:23.707Z,0.93
2022-11-05T14:35:17.924Z,1.00
2022-11-05T14:38:06.165Z,1.02
2022-11-05T14:41:04.308Z,0.82
2022-11-05T14:44:01.343Z,1.10
2022-11-05T14:46:50.404Z,1.05
2022-11-05T14:49:54.041Z,1.17
2022-11-05T14:52:50.089Z,1.00
2022-11-05T14:55:42.546Z,0.82
2022-11-05T14:58:32.104Z,1.17
2022-11-05T15:01:42.759Z,0.98
2022-11-05T15:04:29.949Z,0.82
2022-11-05T15:07:24.256Z,1.05
2022-11-05T15:10:15.957Z,0.68
2022-11-05T15:13:06.287Z,1.13
2022-11-05T15:15:52.817Z,1.00
2022-11-05T15:18:45.343Z,1.45
2022-11-05T15:21:36.237Z,1.20
2022-11-05T15:24:23.050Z,1.10
2022-11-05T15:27:21.997Z,0.90
2022-11-05T15:30:20.612Z,1.50
2022-11-05T15:33:22.240Z,1.40
2022-11-05T15:36:11.000Z,1.10
2022-11-05T15:39:27.528Z,1.50
2022-11-05T15:42:11.723Z,1.50
2022-11-05T15:45:03.649Z,1.20
2022-11-05T15:47:53.042Z,1.58
2022-11-05T15:50:38.993Z,1.50
2022-11-05T15:53:56.553Z,1.40
2022-11-05T15:56:53.223Z,1.88
2022-11-05T15:59:39.207Z,1.67
2022-11-05T16:02:33.539Z,2.00
2022-11-05T16:05:19.447Z,1.80
2022-11-05T16:08:05.577Z,1.80
2022-11-05T16:10:54.415Z,1.90
2022-11-05T16:13:41.749Z,2.08
2022-11-05T16:16:34.325Z,1.80
2022-11-05T16:19:42.029Z,2.43
2022-11-05T16:22:44.880Z,2.30
2022-11-05T16:25:37.061Z,2.35
2022-11-05T16:28:26.590Z,2.00
